sensor_id;sensor_type;location;lat;lon;timestamp;pressure;altitude;pressure_sealevel;temperature;humidity
30618;BME280;17384;51.214;9.202;2023-04-28T00:01:26;98674.75;;;7.07;62.30
30618;BME280;17384;51.214;9.202;2023-04-28T00:03:51;98665.19;;;7.04;61.96
30618;BME280;17384;51.214;9.202;2023-04-28T00:06:17;98665.22;;;7.11;61.42
30618;BME280;17384;51.214;9.202;2023-04-28T00:08:43;98643.84;;;7.09;61.65
30618;BME280;17384;51.214;9.202;2023-04-28T00:11:11;98639.31;;;7.17;59.94
30618;BME280;17384;51.214;9.202;2023-04-28T00:13:37;98636.47;;;7.25;60.12
30618;BME280;17384;51.214;9.202;2023-04-28T00:16:03;98654.84;;;7.08;61.53
30618;BME280;17384;51.214;9.202;2023-04-28T00:18:28;98646.53;;;7.09;62.42
30618;BME280;17384;51.214;9.202;2023-04-28T00:20:55;98651.50;;;7.06;62.81
30618;BME280;17384;51.214;9.202;2023-04-28T00:23:20;98646.88;;;7.00;62.58
30618;BME280;17384;51.214;9.202;2023-04-28T00:25:53;98635.41;;;6.91;62.26
30618;BME280;17384;51.214;9.202;2023-04-28T00:28:19;98627.16;;;6.99;60.91
30618;BME280;17384;51.214;9.202;2023-04-28T00:30:45;98627.56;;;6.96;61.83
30618;BME280;17384;51.214;9.202;2023-04-28T00:33:11;98629.88;;;6.99;62.08
30618;BME280;17384;51.214;9.202;2023-04-28T00:35:37;98628.00;;;7.00;61.13
30618;BME280;17384;51.214;9.202;2023-04-28T00:38:03;98620.72;;;7.28;60.40
30618;BME280;17384;51.214;9.202;2023-04-28T00:40:36;98615.38;;;7.41;60.83
30618;BME280;17384;51.214;9.202;2023-04-28T00:43:02;98614.72;;;7.39;60.00
30618;BME280;17384;51.214;9.202;2023-04-28T00:45:28;98611.38;;;7.31;60.18
30618;BME280;17384;51.214;9.202;2023-04-28T00:47:54;98603.25;;;7.24;60.82
30618;BME280;17384;51.214;9.202;2023-04-28T00:50:20;98602.75;;;7.14;60.38
30618;BME280;17384;51.214;9.202;2023-04-28T00:52:46;98598.38;;;7.06;61.60
30618;BME280;17384;51.214;9.202;2023-04-28T00:55:14;98599.03;;;7.08;61.80
30618;BME280;17384;51.214;9.202;2023-04-28T00:57:40;98601.38;;;7.25;60.02
30618;BME280;17384;51.214;9.202;2023-04-28T01:00:06;98596.81;;;7.25;61.06
30618;BME280;17384;51.214;9.202;2023-04-28T01:02:32;98598.19;;;7.14;60.57
30618;BME280;17384;51.214;9.202;2023-04-28T01:04:58;98600.69;;;7.16;60.92
30618;BME280;17384;51.214;9.202;2023-04-28T01:07:24;98599.88;;;7.16;61.33
30618;BME280;17384;51.214;9.202;2023-04-28T01:09:49;98585.84;;;7.27;60.17
30618;BME280;17384;51.214;9.202;2023-04-28T01:12:15;98576.34;;;7.37;59.90
30618;BME280;17384;51.214;9.202;2023-04-28T01:14:41;98579.09;;;7.51;59.40
30618;BME280;17384;51.214;9.202;2023-04-28T01:17:07;98575.16;;;7.53;59.17
30618;BME280;17384;51.214;9.202;2023-04-28T01:19:33;98579.72;;;7.53;59.11
30618;BME280;17384;51.214;9.202;2023-04-28T01:21:58;98573.03;;;7.42;59.11
30618;BME280;17384;51.214;9.202;2023-04-28T01:24:24;98572.38;;;7.40;59.60
30618;BME280;17384;51.214;9.202;2023-04-28T01:26:49;98581.75;;;7.44;59.31
30618;BME280;17384;51.214;9.202;2023-04-28T01:29:15;98557.91;;;7.47;60.47
30618;BME280;17384;51.214;9.202;2023-04-28T01:31:40;98559.97;;;7.45;59.80
30618;BME280;17384;51.214;9.202;2023-04-28T01:34:06;98563.50;;;7.46;60.24
30618;BME280;17384;51.214;9.202;2023-04-28T01:36:32;98558.09;;;7.46;59.07
30618;BME280;17384;51.214;9.202;2023-04-28T01:38:57;98551.81;;;7.39;59.57
30618;BME280;17384;51.214;9.202;2023-04-28T01:41:23;98554.75;;;7.37;59.95
30618;BME280;17384;51.214;9.202;2023-04-28T01:43:48;98560.13;;;7.31;60.03
30618;BME280;17384;51.214;9.202;2023-04-28T01:46:15;98565.97;;;7.41;59.96
30618;BME280;17384;51.214;9.202;2023-04-28T01:48:40;98565.13;;;7.34;59.67
30618;BME280;17384;51.214;9.202;2023-04-28T01:51:05;98548.47;;;7.24;60.88
30618;BME280;17384;51.214;9.202;2023-04-28T01:53:31;98553.25;;;7.28;60.16
30618;BME280;17384;51.214;9.202;2023-04-28T01:55:56;98558.91;;;7.40;60.17
30618;BME280;17384;51.214;9.202;2023-04-28T01:58:23;98551.63;;;7.40;61.33
30618;BME280;17384;51.214;9.202;2023-04-28T02:00:48;98544.16;;;7.36;61.21
30618;BME280;17384;51.214;9.202;2023-04-28T02:03:14;98541.28;;;7.44;61.45
30618;BME280;17384;51.214;9.202;2023-04-28T02:05:39;98548.09;;;7.40;61.86
30618;BME280;17384;51.214;9.202;2023-04-28T02:08:05;98555.78;;;7.43;61.78
30618;BME280;17384;51.214;9.202;2023-04-28T02:10:30;98551.03;;;7.45;61.30
30618;BME280;17384;51.214;9.202;2023-04-28T02:12:56;98543.72;;;7.39;61.94
30618;BME280;17384;51.214;9.202;2023-04-28T02:15:21;98535.50;;;7.54;63.11
30618;BME280;17384;51.214;9.202;2023-04-28T02:17:46;98529.91;;;7.55;63.04
30618;BME280;17384;51.214;9.202;2023-04-28T02:20:12;98536.13;;;7.56;62.27
30618;BME280;17384;51.214;9.202;2023-04-28T02:22:39;98529.06;;;7.55;62.56
30618;BME280;17384;51.214;9.202;2023-04-28T02:25:04;98527.78;;;7.37;66.32
30618;BME280;17384;51.214;9.202;2023-04-28T02:27:30;98521.47;;;7.24;67.10
30618;BME280;17384;51.214;9.202;2023-04-28T02:29:55;98524.78;;;7.19;68.87
30618;BME280;17384;51.214;9.202;2023-04-28T02:32:21;98515.81;;;7.12;69.38
30618;BME280;17384;51.214;9.202;2023-04-28T02:34:52;98510.63;;;7.10;69.34
30618;BME280;17384;51.214;9.202;2023-04-28T02:37:17;98510.56;;;6.97;69.57
30618;BME280;17384;51.214;9.202;2023-04-28T02:39:43;98504.69;;;6.87;70.42
30618;BME280;17384;51.214;9.202;2023-04-28T02:42:08;98505.09;;;6.84;71.04
30618;BME280;17384;51.214;9.202;2023-04-28T02:44:34;98505.75;;;6.93;69.91
30618;BME280;17384;51.214;9.202;2023-04-28T02:46:59;98501.09;;;7.14;67.35
30618;BME280;17384;51.214;9.202;2023-04-28T02:49:26;98506.88;;;7.11;66.67
30618;BME280;17384;51.214;9.202;2023-04-28T02:51:51;98504.97;;;6.99;67.83
30618;BME280;17384;51.214;9.202;2023-04-28T02:54:17;98503.91;;;6.93;68.68
30618;BME280;17384;51.214;9.202;2023-04-28T02:56:55;98509.72;;;6.97;69.85
30618;BME280;17384;51.214;9.202;2023-04-28T02:59:21;98505.56;;;6.94;70.79
30618;BME280;17384;51.214;9.202;2023-04-28T03:01:47;98504.94;;;6.92;70.06
30618;BME280;17384;51.214;9.202;2023-04-28T03:04:13;98506.44;;;7.01;68.43
30618;BME280;17384;51.214;9.202;2023-04-28T03:06:39;98507.28;;;7.02;67.69
30618;BME280;17384;51.214;9.202;2023-04-28T03:09:05;98487.31;;;6.96;67.59
30618;BME280;17384;51.214;9.202;2023-04-28T03:11:31;98503.69;;;6.95;70.36
30618;BME280;17384;51.214;9.202;2023-04-28T03:13:56;98495.75;;;6.80;72.69
30618;BME280;17384;51.214;9.202;2023-04-28T03:16:22;98477.25;;;6.70;73.94
30618;BME280;17384;51.214;9.202;2023-04-28T03:18:48;98486.00;;;6.79;73.41
30618;BME280;17384;51.214;9.202;2023-04-28T03:21:14;98480.75;;;6.71;73.34
30618;BME280;17384;51.214;9.202;2023-04-28T03:23:40;98474.94;;;6.67;74.29
30618;BME280;17384;51.214;9.202;2023-04-28T03:26:06;98478.13;;;6.84;73.46
30618;BME280;17384;51.214;9.202;2023-04-28T03:28:32;98475.22;;;6.79;74.37
30618;BME280;17384;51.214;9.202;2023-04-28T03:30:57;98474.69;;;6.62;75.25
30618;BME280;17384;51.214;9.202;2023-04-28T03:33:23;98468.44;;;6.55;76.53
30618;BME280;17384;51.214;9.202;2023-04-28T03:35:50;98461.59;;;6.53;77.92
30618;BME280;17384;51.214;9.202;2023-04-28T03:38:16;98467.63;;;6.55;78.62
30618;BME280;17384;51.214;9.202;2023-04-28T03:40:42;98457.88;;;6.54;79.19
30618;BME280;17384;51.214;9.202;2023-04-28T03:43:09;98468.16;;;6.43;79.48
30618;BME280;17384;51.214;9.202;2023-04-28T03:45:35;98451.41;;;6.48;80.44
30618;BME280;17384;51.214;9.202;2023-04-28T03:48:01;98445.25;;;6.26;81.23
30618;BME280;17384;51.214;9.202;2023-04-28T03:50:27;98458.31;;;6.29;81.78
30618;BME280;17384;51.214;9.202;2023-04-28T03:52:53;98463.66;;;6.23;82.51
30618;BME280;17384;51.214;9.202;2023-04-28T03:55:21;98464.94;;;6.27;82.93
30618;BME280;17384;51.214;9.202;2023-04-28T03:57:47;98466.00;;;6.32;82.36
30618;BME280;17384;51.214;9.202;2023-04-28T04:00:13;98469.91;;;6.30;82.18
30618;BME280;17384;51.214;9.202;2023-04-28T04:02:39;98449.13;;;6.17;82.12
30618;BME280;17384;51.214;9.202;2023-04-28T04:05:05;98447.97;;;6.05;82.64
30618;BME280;17384;51.214;9.202;2023-04-28T04:07:30;98445.84;;;5.94;83.24
30618;BME280;17384;51.214;9.202;2023-04-28T04:09:56;98448.97;;;5.97;84.00
30618;BME280;17384;51.214;9.202;2023-04-28T04:12:22;98430.72;;;5.93;84.67
30618;BME280;17384;51.214;9.202;2023-04-28T04:14:48;98438.84;;;5.99;85.06
30618;BME280;17384;51.214;9.202;2023-04-28T04:17:14;98441.94;;;6.03;85.28
30618;BME280;17384;51.214;9.202;2023-04-28T04:19:41;98432.81;;;5.97;85.50
30618;BME280;17384;51.214;9.202;2023-04-28T04:22:07;98453.53;;;5.97;85.84
30618;BME280;17384;51.214;9.202;2023-04-28T04:24:35;98449.19;;;6.02;86.24
30618;BME280;17384;51.214;9.202;2023-04-28T04:27:04;98449.81;;;5.98;85.96
30618;BME280;17384;51.214;9.202;2023-04-28T04:29:29;98453.75;;;6.02;85.82
30618;BME280;17384;51.214;9.202;2023-04-28T04:31:56;98443.97;;;5.94;86.04
30618;BME280;17384;51.214;9.202;2023-04-28T04:34:22;98442.78;;;6.03;85.89
30618;BME280;17384;51.214;9.202;2023-04-28T04:36:48;98431.88;;;6.11;85.03
30618;BME280;17384;51.214;9.202;2023-04-28T04:39:14;98446.47;;;5.96;85.38
30618;BME280;17384;51.214;9.202;2023-04-28T04:41:40;98440.44;;;5.94;86.09
30618;BME280;17384;51.214;9.202;2023-04-28T04:44:07;98418.19;;;5.85;86.17
30618;BME280;17384;51.214;9.202;2023-04-28T04:46:33;98434.03;;;5.95;87.08
30618;BME280;17384;51.214;9.202;2023-04-28T04:48:59;98419.09;;;5.92;87.37
30618;BME280;17384;51.214;9.202;2023-04-28T04:51:25;98425.31;;;5.93;87.71
30618;BME280;17384;51.214;9.202;2023-04-28T04:53:52;98418.75;;;6.02;87.72
30618;BME280;17384;51.214;9.202;2023-04-28T04:56:18;98424.00;;;6.10;87.92
30618;BME280;17384;51.214;9.202;2023-04-28T04:58:44;98425.28;;;6.14;87.72
30618;BME280;17384;51.214;9.202;2023-04-28T05:01:10;98411.81;;;6.14;88.36
30618;BME280;17384;51.214;9.202;2023-04-28T05:03:36;98429.31;;;6.31;88.23
30618;BME280;17384;51.214;9.202;2023-04-28T05:06:02;98414.19;;;6.30;87.57
30618;BME280;17384;51.214;9.202;2023-04-28T05:08:28;98436.84;;;6.42;86.37
30618;BME280;17384;51.214;9.202;2023-04-28T05:10:54;98440.28;;;6.30;86.54
30618;BME280;17384;51.214;9.202;2023-04-28T05:13:20;98437.81;;;6.28;87.44
30618;BME280;17384;51.214;9.202;2023-04-28T05:15:45;98435.00;;;6.15;88.02
30618;BME280;17384;51.214;9.202;2023-04-28T05:18:11;98424.69;;;6.19;88.11
30618;BME280;17384;51.214;9.202;2023-04-28T05:20:38;98432.97;;;6.17;88.30
30618;BME280;17384;51.214;9.202;2023-04-28T05:23:04;98425.91;;;6.16;88.37
30618;BME280;17384;51.214;9.202;2023-04-28T05:25:32;98440.09;;;6.31;88.80
30618;BME280;17384;51.214;9.202;2023-04-28T05:27:58;98441.34;;;6.35;88.38
30618;BME280;17384;51.214;9.202;2023-04-28T05:30:23;98432.28;;;6.43;88.52
30618;BME280;17384;51.214;9.202;2023-04-28T05:32:49;98427.59;;;6.52;87.67
30618;BME280;17384;51.214;9.202;2023-04-28T05:35:15;98426.56;;;6.53;86.85
30618;BME280;17384;51.214;9.202;2023-04-28T05:37:41;98418.69;;;6.58;87.53
30618;BME280;17384;51.214;9.202;2023-04-28T05:40:09;98419.31;;;6.53;86.97
30618;BME280;17384;51.214;9.202;2023-04-28T05:42:35;98414.50;;;6.49;87.27
30618;BME280;17384;51.214;9.202;2023-04-28T05:45:01;98419.69;;;6.50;87.75
30618;BME280;17384;51.214;9.202;2023-04-28T05:47:27;98419.25;;;6.47;87.84
30618;BME280;17384;51.214;9.202;2023-04-28T05:49:53;98407.22;;;6.42;87.80
30618;BME280;17384;51.214;9.202;2023-04-28T05:52:19;98417.75;;;6.37;88.20
30618;BME280;17384;51.214;9.202;2023-04-28T05:54:45;98401.91;;;6.21;88.80
30618;BME280;17384;51.214;9.202;2023-04-28T05:57:10;98386.53;;;6.15;89.01
30618;BME280;17384;51.214;9.202;2023-04-28T05:59:36;98404.47;;;6.36;89.25
30618;BME280;17384;51.214;9.202;2023-04-28T06:02:01;98393.59;;;6.51;87.98
30618;BME280;17384;51.214;9.202;2023-04-28T06:04:28;98395.06;;;6.60;87.79
30618;BME280;17384;51.214;9.202;2023-04-28T06:06:54;98397.63;;;6.74;86.78
30618;BME280;17384;51.214;9.202;2023-04-28T06:09:20;98392.44;;;6.73;86.29
30618;BME280;17384;51.214;9.202;2023-04-28T06:11:45;98398.06;;;6.78;85.38
30618;BME280;17384;51.214;9.202;2023-04-28T06:14:11;98388.91;;;6.72;85.76
30618;BME280;17384;51.214;9.202;2023-04-28T06:16:37;98382.03;;;6.63;85.73
30618;BME280;17384;51.214;9.202;2023-04-28T06:19:02;98391.81;;;6.71;86.81
30618;BME280;17384;51.214;9.202;2023-04-28T06:21:28;98386.66;;;6.76;86.37
30618;BME280;17384;51.214;9.202;2023-04-28T06:23:53;98382.50;;;6.73;86.16
30618;BME280;17384;51.214;9.202;2023-04-28T06:26:19;98384.75;;;6.70;86.71
30618;BME280;17384;51.214;9.202;2023-04-28T06:28:45;98372.91;;;6.64;86.75
30618;BME280;17384;51.214;9.202;2023-04-28T06:31:11;98378.25;;;6.51;85.46
30618;BME280;17384;51.214;9.202;2023-04-28T06:33:36;98383.88;;;6.63;86.37
30618;BME280;17384;51.214;9.202;2023-04-28T06:36:02;98394.78;;;6.89;84.61
30618;BME280;17384;51.214;9.202;2023-04-28T06:38:28;98394.34;;;6.86;84.49
30618;BME280;17384;51.214;9.202;2023-04-28T06:40:54;98413.22;;;6.79;84.20
30618;BME280;17384;51.214;9.202;2023-04-28T06:43:19;98416.34;;;6.83;84.84
30618;BME280;17384;51.214;9.202;2023-04-28T06:45:45;98407.53;;;6.67;83.46
30618;BME280;17384;51.214;9.202;2023-04-28T06:48:11;98411.31;;;6.73;83.62
30618;BME280;17384;51.214;9.202;2023-04-28T06:50:36;98410.09;;;6.75;82.37
30618;BME280;17384;51.214;9.202;2023-04-28T06:53:02;98421.09;;;6.81;83.32
30618;BME280;17384;51.214;9.202;2023-04-28T06:55:28;98415.50;;;6.82;82.99
30618;BME280;17384;51.214;9.202;2023-04-28T06:57:54;98409.88;;;6.77;83.19
30618;BME280;17384;51.214;9.202;2023-04-28T07:00:20;98392.59;;;6.65;83.43
30618;BME280;17384;51.214;9.202;2023-04-28T07:02:46;98406.06;;;6.65;83.67
30618;BME280;17384;51.214;9.202;2023-04-28T07:05:11;98401.13;;;6.68;83.54
30618;BME280;17384;51.214;9.202;2023-04-28T07:07:38;98392.22;;;6.68;83.65
30618;BME280;17384;51.214;9.202;2023-04-28T07:10:05;98405.44;;;6.63;84.14
30618;BME280;17384;51.214;9.202;2023-04-28T07:12:30;98402.44;;;6.79;84.42
30618;BME280;17384;51.214;9.202;2023-04-28T07:14:56;98385.94;;;6.61;84.21
30618;BME280;17384;51.214;9.202;2023-04-28T07:17:22;98386.69;;;6.83;84.63
30618;BME280;17384;51.214;9.202;2023-04-28T07:19:48;98384.81;;;6.90;84.45
30618;BME280;17384;51.214;9.202;2023-04-28T07:22:15;98395.22;;;6.99;84.11
30618;BME280;17384;51.214;9.202;2023-04-28T07:24:41;98387.13;;;6.99;83.85
30618;BME280;17384;51.214;9.202;2023-04-28T07:27:07;98381.91;;;6.78;85.02
30618;BME280;17384;51.214;9.202;2023-04-28T07:29:35;98370.81;;;6.60;85.90
30618;BME280;17384;51.214;9.202;2023-04-28T07:32:01;98382.25;;;6.68;86.93
30618;BME280;17384;51.214;9.202;2023-04-28T07:34:29;98386.41;;;6.71;87.52
30618;BME280;17384;51.214;9.202;2023-04-28T07:36:55;98385.16;;;6.67;87.03
30618;BME280;17384;51.214;9.202;2023-04-28T07:39:22;98381.06;;;6.77;86.90
30618;BME280;17384;51.214;9.202;2023-04-28T07:41:48;98362.53;;;6.61;86.43
30618;BME280;17384;51.214;9.202;2023-04-28T07:44:14;98380.66;;;6.87;86.87
30618;BME280;17384;51.214;9.202;2023-04-28T07:46:39;98364.22;;;6.69;87.51
30618;BME280;17384;51.214;9.202;2023-04-28T07:49:05;98361.16;;;6.78;88.17
30618;BME280;17384;51.214;9.202;2023-04-28T07:51:32;98364.88;;;6.84;87.20
30618;BME280;17384;51.214;9.202;2023-04-28T07:53:58;98382.13;;;6.83;86.74
30618;BME280;17384;51.214;9.202;2023-04-28T07:56:24;98371.53;;;6.88;86.70
30618;BME280;17384;51.214;9.202;2023-04-28T07:58:51;98365.69;;;6.71;87.75
30618;BME280;17384;51.214;9.202;2023-04-28T08:01:16;98362.59;;;6.74;87.56
30618;BME280;17384;51.214;9.202;2023-04-28T08:03:42;98342.91;;;6.81;87.67
30618;BME280;17384;51.214;9.202;2023-04-28T08:06:08;98335.47;;;6.96;86.56
30618;BME280;17384;51.214;9.202;2023-04-28T08:08:34;98340.91;;;7.09;87.46
30618;BME280;17384;51.214;9.202;2023-04-28T08:11:00;98341.31;;;7.06;86.46
30618;BME280;17384;51.214;9.202;2023-04-28T08:13:26;98335.53;;;7.29;86.02
30618;BME280;17384;51.214;9.202;2023-04-28T08:15:53;98321.00;;;7.43;85.94
30618;BME280;17384;51.214;9.202;2023-04-28T08:18:21;98339.09;;;7.36;84.35
30618;BME280;17384;51.214;9.202;2023-04-28T08:20:46;98341.34;;;7.39;84.88
30618;BME280;17384;51.214;9.202;2023-04-28T08:23:12;98339.28;;;7.47;85.11
30618;BME280;17384;51.214;9.202;2023-04-28T08:25:38;98345.94;;;7.38;85.36
30618;BME280;17384;51.214;9.202;2023-04-28T08:28:04;98338.03;;;7.37;85.58
30618;BME280;17384;51.214;9.202;2023-04-28T08:30:31;98344.47;;;7.36;85.79
30618;BME280;17384;51.214;9.202;2023-04-28T08:32:56;98333.69;;;7.36;86.78
30618;BME280;17384;51.214;9.202;2023-04-28T08:35:22;98317.28;;;7.51;86.67
30618;BME280;17384;51.214;9.202;2023-04-28T08:37:48;98326.00;;;7.59;86.72
30618;BME280;17384;51.214;9.202;2023-04-28T08:40:14;98324.94;;;7.73;85.92
30618;BME280;17384;51.214;9.202;2023-04-28T08:42:40;98323.69;;;7.82;86.33
30618;BME280;17384;51.214;9.202;2023-04-28T08:45:07;98326.81;;;7.73;85.94
30618;BME280;17384;51.214;9.202;2023-04-28T08:47:38;98338.03;;;7.90;86.72
30618;BME280;17384;51.214;9.202;2023-04-28T08:50:14;98321.38;;;8.06;84.89
30618;BME280;17384;51.214;9.202;2023-04-28T08:52:44;98329.31;;;7.88;85.25
30618;BME280;17384;51.214;9.202;2023-04-28T08:55:11;98330.13;;;7.88;84.61
30618;BME280;17384;51.214;9.202;2023-04-28T08:57:57;98343.59;;;8.01;84.65
30618;BME280;17384;51.214;9.202;2023-04-28T09:00:23;98345.25;;;8.02;84.57
30618;BME280;17384;51.214;9.202;2023-04-28T09:02:49;98328.88;;;7.91;84.85
30618;BME280;17384;51.214;9.202;2023-04-28T09:05:15;98344.25;;;7.84;84.99
30618;BME280;17384;51.214;9.202;2023-04-28T09:07:44;98352.78;;;7.87;84.65
30618;BME280;17384;51.214;9.202;2023-04-28T09:10:18;98336.13;;;7.97;85.28
30618;BME280;17384;51.214;9.202;2023-04-28T09:12:44;98328.03;;;8.03;85.66
30618;BME280;17384;51.214;9.202;2023-04-28T09:15:24;98333.81;;;8.20;85.75
30618;BME280;17384;51.214;9.202;2023-04-28T09:17:51;98332.16;;;8.19;85.28
30618;BME280;17384;51.214;9.202;2023-04-28T09:20:21;98335.50;;;8.08;85.43
30618;BME280;17384;51.214;9.202;2023-04-28T09:22:49;98339.59;;;8.43;84.54
30618;BME280;17384;51.214;9.202;2023-04-28T09:25:15;98331.06;;;8.46;85.20
30618;BME280;17384;51.214;9.202;2023-04-28T09:27:41;98343.75;;;8.39;84.83
30618;BME280;17384;51.214;9.202;2023-04-28T09:30:07;98333.56;;;8.28;85.92
30618;BME280;17384;51.214;9.202;2023-04-28T09:32:34;98336.28;;;8.28;85.81
30618;BME280;17384;51.214;9.202;2023-04-28T09:35:01;98319.84;;;8.23;86.20
30618;BME280;17384;51.214;9.202;2023-04-28T09:37:27;98325.03;;;8.31;85.34
30618;BME280;17384;51.214;9.202;2023-04-28T09:39:56;98318.66;;;8.06;85.92
30618;BME280;17384;51.214;9.202;2023-04-28T09:45:10;98315.50;;;8.22;87.86
30618;BME280;17384;51.214;9.202;2023-04-28T09:47:38;98306.34;;;8.36;86.62
30618;BME280;17384;51.214;9.202;2023-04-28T09:50:06;98323.81;;;8.34;86.52
30618;BME280;17384;51.214;9.202;2023-04-28T09:52:34;98312.50;;;8.57;85.43
30618;BME280;17384;51.214;9.202;2023-04-28T09:55:03;98301.28;;;8.53;85.58
30618;BME280;17384;51.214;9.202;2023-04-28T09:57:31;98306.66;;;8.60;86.43
30618;BME280;17384;51.214;9.202;2023-04-28T09:59:57;98322.47;;;8.56;85.84
30618;BME280;17384;51.214;9.202;2023-04-28T10:02:24;98318.41;;;8.40;86.98
30618;BME280;17384;51.214;9.202;2023-04-28T10:04:50;98313.34;;;8.51;87.18
30618;BME280;17384;51.214;9.202;2023-04-28T10:07:20;98318.53;;;8.52;88.05
30618;BME280;17384;51.214;9.202;2023-04-28T10:09:47;98311.66;;;8.56;88.17
30618;BME280;17384;51.214;9.202;2023-04-28T10:12:15;98306.44;;;8.68;87.81
30618;BME280;17384;51.214;9.202;2023-04-28T10:14:42;98311.69;;;8.94;87.23
30618;BME280;17384;51.214;9.202;2023-04-28T10:17:09;98311.31;;;8.84;86.96
30618;BME280;17384;51.214;9.202;2023-04-28T10:19:35;98309.84;;;8.88;86.49
30618;BME280;17384;51.214;9.202;2023-04-28T10:27:40;98304.47;;;8.81;88.08
30618;BME280;17384;51.214;9.202;2023-04-28T10:30:16;98299.13;;;8.75;88.22
30618;BME280;17384;51.214;9.202;2023-04-28T10:32:43;98301.66;;;9.01;87.31
30618;BME280;17384;51.214;9.202;2023-04-28T10:38:09;98294.97;;;9.04;87.63
30618;BME280;17384;51.214;9.202;2023-04-28T10:40:47;98305.09;;;9.15;87.41
30618;BME280;17384;51.214;9.202;2023-04-28T10:43:14;98290.09;;;9.19;87.53
30618;BME280;17384;51.214;9.202;2023-04-28T10:56:22;98283.28;;;9.35;87.13
30618;BME280;17384;51.214;9.202;2023-04-28T10:58:53;98269.22;;;9.51;86.98
30618;BME280;17384;51.214;9.202;2023-04-28T11:06:40;98255.44;;;9.77;85.52
30618;BME280;17384;51.214;9.202;2023-04-28T11:17:01;98248.44;;;9.88;86.27
30618;BME280;17384;51.214;9.202;2023-04-28T11:19:29;98260.19;;;10.00;86.22
30618;BME280;17384;51.214;9.202;2023-04-28T11:21:56;98256.53;;;10.31;86.17
30618;BME280;17384;51.214;9.202;2023-04-28T11:24:23;98256.81;;;10.05;85.45
30618;BME280;17384;51.214;9.202;2023-04-28T11:26:51;98251.69;;;9.97;86.19
30618;BME280;17384;51.214;9.202;2023-04-28T11:29:30;98244.59;;;10.14;85.87
30618;BME280;17384;51.214;9.202;2023-04-28T11:31:57;98243.31;;;10.16;85.78
30618;BME280;17384;51.214;9.202;2023-04-28T11:34:23;98237.84;;;10.05;86.01
30618;BME280;17384;51.214;9.202;2023-04-28T11:36:49;98234.06;;;10.42;86.34
30618;BME280;17384;51.214;9.202;2023-04-28T11:39:15;98226.72;;;10.61;85.98
30618;BME280;17384;51.214;9.202;2023-04-28T11:41:43;98210.69;;;10.60;85.80
30618;BME280;17384;51.214;9.202;2023-04-28T11:44:18;98224.38;;;10.35;85.68
30618;BME280;17384;51.214;9.202;2023-04-28T11:49:15;98226.63;;;10.38;86.37
30618;BME280;17384;51.214;9.202;2023-04-28T11:51:41;98230.06;;;10.45;86.52
30618;BME280;17384;51.214;9.202;2023-04-28T11:54:09;98229.03;;;10.28;86.85
30618;BME280;17384;51.214;9.202;2023-04-28T11:56:40;98218.34;;;10.33;86.43
30618;BME280;17384;51.214;9.202;2023-04-28T11:59:08;98237.84;;;10.23;87.63
30618;BME280;17384;51.214;9.202;2023-04-28T12:01:45;98232.97;;;10.32;87.54
30618;BME280;17384;51.214;9.202;2023-04-28T12:04:11;98226.09;;;10.29;86.92
30618;BME280;17384;51.214;9.202;2023-04-28T12:06:39;98223.53;;;10.34;87.23
30618;BME280;17384;51.214;9.202;2023-04-28T12:09:15;98215.06;;;10.42;87.50
30618;BME280;17384;51.214;9.202;2023-04-28T12:11:52;98238.88;;;10.40;87.50
30618;BME280;17384;51.214;9.202;2023-04-28T12:14:19;98231.03;;;10.50;88.18
30618;BME280;17384;51.214;9.202;2023-04-28T12:16:45;98231.50;;;10.47;87.98
30618;BME280;17384;51.214;9.202;2023-04-28T12:19:13;98244.28;;;10.40;87.58
30618;BME280;17384;51.214;9.202;2023-04-28T12:21:40;98214.34;;;10.35;88.13
30618;BME280;17384;51.214;9.202;2023-04-28T12:24:14;98224.09;;;10.55;88.38
30618;BME280;17384;51.214;9.202;2023-04-28T12:26:39;98220.63;;;10.66;87.61
30618;BME280;17384;51.214;9.202;2023-04-28T12:29:06;98230.38;;;10.67;86.58
30618;BME280;17384;51.214;9.202;2023-04-28T12:31:31;98244.16;;;10.83;86.31
30618;BME280;17384;51.214;9.202;2023-04-28T12:33:57;98228.47;;;10.85;86.68
30618;BME280;17384;51.214;9.202;2023-04-28T12:36:23;98210.06;;;10.99;86.47
30618;BME280;17384;51.214;9.202;2023-04-28T12:38:49;98215.69;;;11.16;85.85
30618;BME280;17384;51.214;9.202;2023-04-28T12:41:15;98224.53;;;11.11;86.15
30618;BME280;17384;51.214;9.202;2023-04-28T12:43:41;98217.34;;;11.29;85.32
30618;BME280;17384;51.214;9.202;2023-04-28T12:46:09;98222.19;;;11.38;85.53
30618;BME280;17384;51.214;9.202;2023-04-28T12:48:36;98220.88;;;11.29;85.34
30618;BME280;17384;51.214;9.202;2023-04-28T12:51:02;98234.69;;;11.28;86.51
30618;BME280;17384;51.214;9.202;2023-04-28T12:53:27;98226.41;;;11.23;86.17
30618;BME280;17384;51.214;9.202;2023-04-28T12:55:53;98220.31;;;11.39;85.95
30618;BME280;17384;51.214;9.202;2023-04-28T12:58:18;98221.72;;;11.41;85.76
30618;BME280;17384;51.214;9.202;2023-04-28T13:00:44;98230.69;;;11.42;85.23
30618;BME280;17384;51.214;9.202;2023-04-28T13:03:09;98229.06;;;11.64;85.06
30618;BME280;17384;51.214;9.202;2023-04-28T13:05:35;98215.94;;;11.73;84.59
30618;BME280;17384;51.214;9.202;2023-04-28T13:08:01;98210.38;;;12.03;83.50
30618;BME280;17384;51.214;9.202;2023-04-28T13:10:30;98215.25;;;12.01;84.00
30618;BME280;17384;51.214;9.202;2023-04-28T13:12:57;98208.28;;;12.33;82.83
30618;BME280;17384;51.214;9.202;2023-04-28T13:15:25;98212.88;;;12.44;82.84
30618;BME280;17384;51.214;9.202;2023-04-28T13:17:51;98220.72;;;12.29;81.98
30618;BME280;17384;51.214;9.202;2023-04-28T13:20:16;98218.00;;;12.29;80.92
30618;BME280;17384;51.214;9.202;2023-04-28T13:22:42;98218.97;;;12.23;80.71
30618;BME280;17384;51.214;9.202;2023-04-28T13:25:08;98206.69;;;12.09;81.60
30618;BME280;17384;51.214;9.202;2023-04-28T13:27:34;98215.78;;;12.14;81.93
30618;BME280;17384;51.214;9.202;2023-04-28T13:30:00;98202.75;;;12.28;83.77
30618;BME280;17384;51.214;9.202;2023-04-28T13:32:28;98203.72;;;12.22;81.88
30618;BME280;17384;51.214;9.202;2023-04-28T13:34:53;98202.06;;;12.21;83.19
30618;BME280;17384;51.214;9.202;2023-04-28T13:37:19;98199.75;;;12.01;82.49
30618;BME280;17384;51.214;9.202;2023-04-28T13:39:45;98204.66;;;12.16;82.02
30618;BME280;17384;51.214;9.202;2023-04-28T13:42:10;98211.34;;;12.37;82.45
30618;BME280;17384;51.214;9.202;2023-04-28T13:44:37;98203.50;;;12.52;82.16